sensor_id;sensor_type;location;lat;lon;timestamp;P1;durP1;ratioP1;P2;durP2;ratioP2
4323;SDS011;2175;51.018;6.994;2024-01-16T00:00:50;30.77;;;14.65;;
4323;SDS011;2175;51.018;6.994;2024-01-16T00:03:16;18.02;;;13.48;;
4323;SDS011;2175;51.018;6.994;2024-01-16T00:05:42;21.57;;;12.80;;
4323;SDS011;2175;51.018;6.994;2024-01-16T00:08:08;20.93;;;12.23;;
4323;SDS011;2175;51.018;6.994;2024-01-16T00:10:34;25.10;;;14.80;;
4323;SDS011;2175;51.018;6.994;2024-01-16T00:13:00;21.02;;;13.55;;
4323;SDS011;2175;51.018;6.994;2024-01-16T00:15:26;17.90;;;12.13;;
4323;SDS011;2175;51.018;6.994;2024-01-16T00:17:52;16.67;;;12.40;;
4323;SDS011;2175;51.018;6.994;2024-01-16T00:20:18;16.70;;;11.88;;
4323;SDS011;2175;51.018;6.994;2024-01-16T00:22:44;24.10;;;13.98;;
4323;SDS011;2175;51.018;6.994;2024-01-16T00:25:10;22.50;;;12.88;;
4323;SDS011;2175;51.018;6.994;2024-01-16T00:27:36;21.85;;;13.60;;
4323;SDS011;2175;51.018;6.994;2024-01-16T00:30:03;27.03;;;16.70;;
4323;SDS011;2175;51.018;6.994;2024-01-16T00:32:29;23.05;;;12.85;;
4323;SDS011;2175;51.018;6.994;2024-01-16T00:34:55;23.30;;;14.20;;
4323;SDS011;2175;51.018;6.994;2024-01-16T00:37:21;24.73;;;14.63;;
4323;SDS011;2175;51.018;6.994;2024-01-16T00:39:47;24.45;;;13.05;;
4323;SDS011;2175;51.018;6.994;2024-01-16T00:42:13;20.87;;;12.37;;
4323;SDS011;2175;51.018;6.994;2024-01-16T00:44:39;29.23;;;13.87;;
4323;SDS011;2175;51.018;6.994;2024-01-16T00:47:05;26.00;;;12.23;;
4323;SDS011;2175;51.018;6.994;2024-01-16T00:49:31;22.47;;;11.30;;
4323;SDS011;2175;51.018;6.994;2024-01-16T00:51:57;24.90;;;13.80;;
4323;SDS011;2175;51.018;6.994;2024-01-16T00:54:23;21.40;;;12.50;;
4323;SDS011;2175;51.018;6.994;2024-01-16T00:56:49;27.13;;;15.13;;
4323;SDS011;2175;51.018;6.994;2024-01-16T00:59:15;26.95;;;14.10;;
4323;SDS011;2175;51.018;6.994;2024-01-16T01:01:41;23.85;;;12.77;;
4323;SDS011;2175;51.018;6.994;2024-01-16T01:04:07;23.50;;;12.23;;
4323;SDS011;2175;51.018;6.994;2024-01-16T01:06:35;37.13;;;14.97;;
4323;SDS011;2175;51.018;6.994;2024-01-16T01:09:01;26.83;;;14.05;;
4323;SDS011;2175;51.018;6.994;2024-01-16T01:11:28;23.80;;;12.35;;
4323;SDS011;2175;51.018;6.994;2024-01-16T01:13:54;29.40;;;12.80;;
4323;SDS011;2175;51.018;6.994;2024-01-16T01:16:20;18.13;;;12.07;;
4323;SDS011;2175;51.018;6.994;2024-01-16T01:18:46;25.42;;;12.95;;
4323;SDS011;2175;51.018;6.994;2024-01-16T01:21:12;20.83;;;12.77;;
4323;SDS011;2175;51.018;6.994;2024-01-16T01:23:38;26.88;;;12.25;;
4323;SDS011;2175;51.018;6.994;2024-01-16T01:26:04;19.27;;;11.93;;
4323;SDS011;2175;51.018;6.994;2024-01-16T01:28:30;23.23;;;10.55;;
4323;SDS011;2175;51.018;6.994;2024-01-16T01:30:56;20.93;;;9.60;;
4323;SDS011;2175;51.018;6.994;2024-01-16T01:33:22;21.30;;;10.17;;
4323;SDS011;2175;51.018;6.994;2024-01-16T01:35:48;25.03;;;11.07;;
4323;SDS011;2175;51.018;6.994;2024-01-16T01:38:14;15.57;;;9.40;;
4323;SDS011;2175;51.018;6.994;2024-01-16T01:40:40;21.50;;;10.05;;
4323;SDS011;2175;51.018;6.994;2024-01-16T01:43:21;24.10;;;12.10;;
4323;SDS011;2175;51.018;6.994;2024-01-16T01:48:29;25.23;;;9.32;;
4323;SDS011;2175;51.018;6.994;2024-01-16T01:50:56;16.52;;;9.15;;
4323;SDS011;2175;51.018;6.994;2024-01-16T01:53:23;15.15;;;8.10;;
4323;SDS011;2175;51.018;6.994;2024-01-16T01:55:49;22.17;;;10.73;;
4323;SDS011;2175;51.018;6.994;2024-01-16T01:58:15;21.63;;;11.00;;
4323;SDS011;2175;51.018;6.994;2024-01-16T02:00:41;20.70;;;12.55;;
4323;SDS011;2175;51.018;6.994;2024-01-16T02:03:07;23.15;;;11.77;;
4323;SDS011;2175;51.018;6.994;2024-01-16T02:05:33;15.32;;;9.70;;
4323;SDS011;2175;51.018;6.994;2024-01-16T02:07:59;22.58;;;11.90;;
4323;SDS011;2175;51.018;6.994;2024-01-16T02:10:25;21.52;;;12.15;;
4323;SDS011;2175;51.018;6.994;2024-01-16T02:12:51;19.92;;;11.00;;
4323;SDS011;2175;51.018;6.994;2024-01-16T02:15:17;18.10;;;11.88;;
4323;SDS011;2175;51.018;6.994;2024-01-16T02:17:43;19.53;;;11.87;;
4323;SDS011;2175;51.018;6.994;2024-01-16T02:20:10;22.60;;;12.73;;
4323;SDS011;2175;51.018;6.994;2024-01-16T02:22:36;26.80;;;15.85;;
4323;SDS011;2175;51.018;6.994;2024-01-16T02:25:02;24.65;;;13.55;;
4323;SDS011;2175;51.018;6.994;2024-01-16T02:27:28;25.52;;;13.82;;
4323;SDS011;2175;51.018;6.994;2024-01-16T02:29:54;21.60;;;11.13;;
4323;SDS011;2175;51.018;6.994;2024-01-16T02:32:20;18.77;;;10.50;;
4323;SDS011;2175;51.018;6.994;2024-01-16T02:34:47;27.30;;;12.88;;
4323;SDS011;2175;51.018;6.994;2024-01-16T02:37:13;20.90;;;11.55;;
4323;SDS011;2175;51.018;6.994;2024-01-16T02:39:39;21.73;;;11.40;;
4323;SDS011;2175;51.018;6.994;2024-01-16T02:42:05;20.80;;;10.57;;
4323;SDS011;2175;51.018;6.994;2024-01-16T02:44:31;30.60;;;11.57;;
4323;SDS011;2175;51.018;6.994;2024-01-16T02:46:57;19.88;;;10.63;;
4323;SDS011;2175;51.018;6.994;2024-01-16T02:49:23;19.30;;;11.80;;
4323;SDS011;2175;51.018;6.994;2024-01-16T02:51:50;32.42;;;12.10;;
4323;SDS011;2175;51.018;6.994;2024-01-16T02:54:17;32.73;;;12.40;;
4323;SDS011;2175;51.018;6.994;2024-01-16T02:56:43;26.65;;;12.35;;
4323;SDS011;2175;51.018;6.994;2024-01-16T02:59:09;24.87;;;11.23;;
4323;SDS011;2175;51.018;6.994;2024-01-16T03:01:35;27.27;;;12.30;;
4323;SDS011;2175;51.018;6.994;2024-01-16T03:04:01;28.10;;;10.90;;
4323;SDS011;2175;51.018;6.994;2024-01-16T03:06:27;20.23;;;10.77;;
4323;SDS011;2175;51.018;6.994;2024-01-16T03:08:54;18.48;;;9.88;;
4323;SDS011;2175;51.018;6.994;2024-01-16T03:11:20;19.95;;;11.40;;
4323;SDS011;2175;51.018;6.994;2024-01-16T03:13:46;21.55;;;11.98;;
4323;SDS011;2175;51.018;6.994;2024-01-16T03:16:14;24.50;;;11.45;;
4323;SDS011;2175;51.018;6.994;2024-01-16T03:18:41;24.80;;;12.07;;
4323;SDS011;2175;51.018;6.994;2024-01-16T03:21:07;34.53;;;13.52;;
4323;SDS011;2175;51.018;6.994;2024-01-16T03:23:33;25.45;;;12.38;;
4323;SDS011;2175;51.018;6.994;2024-01-16T03:25:59;20.20;;;10.93;;
4323;SDS011;2175;51.018;6.994;2024-01-16T03:28:25;18.67;;;11.57;;
4323;SDS011;2175;51.018;6.994;2024-01-16T03:30:51;19.33;;;10.50;;
4323;SDS011;2175;51.018;6.994;2024-01-16T03:33:18;23.15;;;11.77;;
4323;SDS011;2175;51.018;6.994;2024-01-16T03:35:45;21.20;;;10.90;;
4323;SDS011;2175;51.018;6.994;2024-01-16T03:38:12;20.00;;;10.90;;
4323;SDS011;2175;51.018;6.994;2024-01-16T03:40:38;24.63;;;11.32;;
4323;SDS011;2175;51.018;6.994;2024-01-16T03:43:04;22.33;;;11.07;;
4323;SDS011;2175;51.018;6.994;2024-01-16T03:45:30;18.42;;;9.40;;
4323;SDS011;2175;51.018;6.994;2024-01-16T03:47:56;22.52;;;10.52;;
4323;SDS011;2175;51.018;6.994;2024-01-16T03:50:22;19.77;;;9.82;;
4323;SDS011;2175;51.018;6.994;2024-01-16T03:52:48;23.17;;;11.43;;
4323;SDS011;2175;51.018;6.994;2024-01-16T03:55:14;17.43;;;10.20;;
4323;SDS011;2175;51.018;6.994;2024-01-16T03:57:40;20.27;;;8.90;;
4323;SDS011;2175;51.018;6.994;2024-01-16T04:00:07;14.82;;;9.57;;
4323;SDS011;2175;51.018;6.994;2024-01-16T04:02:37;21.75;;;10.02;;
4323;SDS011;2175;51.018;6.994;2024-01-16T04:05:04;17.73;;;10.80;;
4323;SDS011;2175;51.018;6.994;2024-01-16T04:07:30;28.63;;;12.27;;
4323;SDS011;2175;51.018;6.994;2024-01-16T04:09:56;22.77;;;10.35;;
4323;SDS011;2175;51.018;6.994;2024-01-16T04:12:22;20.80;;;11.17;;
4323;SDS011;2175;51.018;6.994;2024-01-16T04:14:48;16.47;;;9.50;;
4323;SDS011;2175;51.018;6.994;2024-01-16T04:17:14;22.90;;;10.97;;
4323;SDS011;2175;51.018;6.994;2024-01-16T04:19:40;18.43;;;9.90;;
4323;SDS011;2175;51.018;6.994;2024-01-16T04:22:06;18.60;;;11.00;;
4323;SDS011;2175;51.018;6.994;2024-01-16T04:24:32;19.58;;;10.77;;
4323;SDS011;2175;51.018;6.994;2024-01-16T04:26:58;23.15;;;11.55;;
4323;SDS011;2175;51.018;6.994;2024-01-16T04:29:24;23.70;;;11.30;;
4323;SDS011;2175;51.018;6.994;2024-01-16T04:31:50;22.93;;;12.43;;
4323;SDS011;2175;51.018;6.994;2024-01-16T04:34:16;22.33;;;11.37;;
4323;SDS011;2175;51.018;6.994;2024-01-16T04:36:42;18.63;;;11.57;;
4323;SDS011;2175;51.018;6.994;2024-01-16T04:39:08;30.70;;;12.82;;
4323;SDS011;2175;51.018;6.994;2024-01-16T04:41:34;18.83;;;10.55;;
4323;SDS011;2175;51.018;6.994;2024-01-16T04:44:01;17.65;;;10.30;;
4323;SDS011;2175;51.018;6.994;2024-01-16T04:46:27;20.23;;;10.30;;
4323;SDS011;2175;51.018;6.994;2024-01-16T04:48:54;23.73;;;10.47;;
4323;SDS011;2175;51.018;6.994;2024-01-16T04:51:20;23.50;;;10.13;;
4323;SDS011;2175;51.018;6.994;2024-01-16T04:53:46;27.02;;;10.45;;
4323;SDS011;2175;51.018;6.994;2024-01-16T04:56:12;24.25;;;9.60;;
4323;SDS011;2175;51.018;6.994;2024-01-16T04:58:38;18.70;;;10.00;;
4323;SDS011;2175;51.018;6.994;2024-01-16T05:01:04;24.15;;;9.80;;
4323;SDS011;2175;51.018;6.994;2024-01-16T05:03:30;21.30;;;10.43;;
4323;SDS011;2175;51.018;6.994;2024-01-16T05:05:56;26.13;;;11.20;;
4323;SDS011;2175;51.018;6.994;2024-01-16T05:08:22;25.48;;;10.15;;
4323;SDS011;2175;51.018;6.994;2024-01-16T05:10:49;28.85;;;11.15;;
4323;SDS011;2175;51.018;6.994;2024-01-16T05:13:15;26.27;;;12.23;;
4323;SDS011;2175;51.018;6.994;2024-01-16T05:15:41;27.80;;;12.37;;
4323;SDS011;2175;51.018;6.994;2024-01-16T05:18:07;20.03;;;11.33;;
4323;SDS011;2175;51.018;6.994;2024-01-16T05:20:35;21.40;;;12.15;;
4323;SDS011;2175;51.018;6.994;2024-01-16T05:23:01;22.73;;;11.65;;
4323;SDS011;2175;51.018;6.994;2024-01-16T05:25:27;24.88;;;11.30;;
4323;SDS011;2175;51.018;6.994;2024-01-16T05:27:53;28.13;;;12.67;;
4323;SDS011;2175;51.018;6.994;2024-01-16T05:30:19;25.83;;;11.70;;
4323;SDS011;2175;51.018;6.994;2024-01-16T05:32:45;23.05;;;12.27;;
4323;SDS011;2175;51.018;6.994;2024-01-16T05:35:11;24.40;;;9.80;;
4323;SDS011;2175;51.018;6.994;2024-01-16T05:37:37;24.75;;;8.85;;
4323;SDS011;2175;51.018;6.994;2024-01-16T05:40:03;20.63;;;10.02;;
4323;SDS011;2175;51.018;6.994;2024-01-16T05:42:32;14.57;;;7.65;;
4323;SDS011;2175;51.018;6.994;2024-01-16T05:44:58;21.40;;;8.47;;
4323;SDS011;2175;51.018;6.994;2024-01-16T05:47:24;21.00;;;8.43;;
4323;SDS011;2175;51.018;6.994;2024-01-16T05:49:52;17.67;;;8.48;;
4323;SDS011;2175;51.018;6.994;2024-01-16T05:52:18;19.42;;;8.45;;
4323;SDS011;2175;51.018;6.994;2024-01-16T05:54:44;25.10;;;8.57;;
4323;SDS011;2175;51.018;6.994;2024-01-16T05:57:10;22.25;;;8.32;;
4323;SDS011;2175;51.018;6.994;2024-01-16T05:59:37;17.63;;;7.55;;
4323;SDS011;2175;51.018;6.994;2024-01-16T06:02:03;22.97;;;7.43;;
4323;SDS011;2175;51.018;6.994;2024-01-16T06:04:29;17.45;;;7.15;;
4323;SDS011;2175;51.018;6.994;2024-01-16T06:06:55;17.27;;;7.30;;
4323;SDS011;2175;51.018;6.994;2024-01-16T06:09:21;19.27;;;7.70;;
4323;SDS011;2175;51.018;6.994;2024-01-16T06:11:47;21.90;;;7.57;;
4323;SDS011;2175;51.018;6.994;2024-01-16T06:14:13;23.60;;;6.97;;
4323;SDS011;2175;51.018;6.994;2024-01-16T06:16:44;13.43;;;6.03;;
4323;SDS011;2175;51.018;6.994;2024-01-16T06:19:10;16.83;;;6.30;;
4323;SDS011;2175;51.018;6.994;2024-01-16T06:21:36;17.48;;;6.15;;
4323;SDS011;2175;51.018;6.994;2024-01-16T06:24:04;15.95;;;5.82;;
4323;SDS011;2175;51.018;6.994;2024-01-16T06:26:30;23.02;;;6.82;;
4323;SDS011;2175;51.018;6.994;2024-01-16T06:28:56;18.60;;;6.40;;
4323;SDS011;2175;51.018;6.994;2024-01-16T06:31:22;17.75;;;6.20;;
4323;SDS011;2175;51.018;6.994;2024-01-16T06:33:51;11.23;;;5.47;;
4323;SDS011;2175;51.018;6.994;2024-01-16T06:36:17;12.50;;;5.10;;
4323;SDS011;2175;51.018;6.994;2024-01-16T06:38:43;18.85;;;6.20;;
4323;SDS011;2175;51.018;6.994;2024-01-16T06:41:09;16.90;;;5.27;;
4323;SDS011;2175;51.018;6.994;2024-01-16T06:43:35;22.80;;;5.72;;
4323;SDS011;2175;51.018;6.994;2024-01-16T06:46:01;14.98;;;5.60;;
4323;SDS011;2175;51.018;6.994;2024-01-16T06:48:27;19.77;;;5.32;;
4323;SDS011;2175;51.018;6.994;2024-01-16T06:50:53;27.90;;;5.85;;
4323;SDS011;2175;51.018;6.994;2024-01-16T06:53:19;21.33;;;4.93;;
4323;SDS011;2175;51.018;6.994;2024-01-16T06:55:45;17.70;;;5.00;;
4323;SDS011;2175;51.018;6.994;2024-01-16T06:58:11;12.73;;;4.93;;
4323;SDS011;2175;51.018;6.994;2024-01-16T07:00:37;10.90;;;4.90;;
4323;SDS011;2175;51.018;6.994;2024-01-16T07:03:06;14.48;;;5.35;;
4323;SDS011;2175;51.018;6.994;2024-01-16T07:05:32;21.55;;;5.95;;
4323;SDS011;2175;51.018;6.994;2024-01-16T07:07:58;15.20;;;6.03;;
4323;SDS011;2175;51.018;6.994;2024-01-16T07:10:24;25.38;;;6.60;;
4323;SDS011;2175;51.018;6.994;2024-01-16T07:12:50;16.17;;;6.05;;
4323;SDS011;2175;51.018;6.994;2024-01-16T07:15:17;17.85;;;6.28;;
4323;SDS011;2175;51.018;6.994;2024-01-16T07:17:43;17.98;;;6.65;;
4323;SDS011;2175;51.018;6.994;2024-01-16T07:20:09;15.13;;;5.50;;
4323;SDS011;2175;51.018;6.994;2024-01-16T07:22:36;18.40;;;5.90;;
4323;SDS011;2175;51.018;6.994;2024-01-16T07:25:04;19.88;;;6.65;;
4323;SDS011;2175;51.018;6.994;2024-01-16T07:27:30;21.48;;;5.72;;
4323;SDS011;2175;51.018;6.994;2024-01-16T07:29:56;15.73;;;5.80;;
4323;SDS011;2175;51.018;6.994;2024-01-16T07:32:22;12.30;;;5.60;;
4323;SDS011;2175;51.018;6.994;2024-01-16T07:34:48;21.23;;;6.70;;
4323;SDS011;2175;51.018;6.994;2024-01-16T07:37:16;19.02;;;5.80;;
4323;SDS011;2175;51.018;6.994;2024-01-16T07:39:42;17.48;;;5.90;;
4323;SDS011;2175;51.018;6.994;2024-01-16T07:42:08;20.55;;;5.60;;
4323;SDS011;2175;51.018;6.994;2024-01-16T07:44:36;20.00;;;5.43;;
4323;SDS011;2175;51.018;6.994;2024-01-16T07:47:02;19.23;;;5.10;;
4323;SDS011;2175;51.018;6.994;2024-01-16T07:49:29;20.60;;;6.13;;
4323;SDS011;2175;51.018;6.994;2024-01-16T07:51:55;30.65;;;6.28;;
4323;SDS011;2175;51.018;6.994;2024-01-16T07:54:21;31.63;;;10.00;;
4323;SDS011;2175;51.018;6.994;2024-01-16T07:56:47;17.38;;;5.60;;
4323;SDS011;2175;51.018;6.994;2024-01-16T07:59:13;12.97;;;5.03;;
4323;SDS011;2175;51.018;6.994;2024-01-16T08:01:39;18.90;;;5.10;;
4323;SDS011;2175;51.018;6.994;2024-01-16T08:04:05;18.87;;;5.17;;
4323;SDS011;2175;51.018;6.994;2024-01-16T08:06:31;10.10;;;4.68;;
4323;SDS011;2175;51.018;6.994;2024-01-16T08:08:57;21.08;;;4.90;;
4323;SDS011;2175;51.018;6.994;2024-01-16T08:11:23;16.80;;;4.50;;
4323;SDS011;2175;51.018;6.994;2024-01-16T08:13:49;13.18;;;4.85;;
4323;SDS011;2175;51.018;6.994;2024-01-16T08:16:15;11.27;;;4.30;;
4323;SDS011;2175;51.018;6.994;2024-01-16T08:18:41;16.17;;;5.90;;
4323;SDS011;2175;51.018;6.994;2024-01-16T08:21:07;13.63;;;4.63;;
4323;SDS011;2175;51.018;6.994;2024-01-16T08:23:34;14.63;;;4.70;;
4323;SDS011;2175;51.018;6.994;2024-01-16T08:26:00;23.15;;;5.00;;
4323;SDS011;2175;51.018;6.994;2024-01-16T08:28:26;19.93;;;4.87;;
4323;SDS011;2175;51.018;6.994;2024-01-16T08:30:52;16.08;;;4.93;;
4323;SDS011;2175;51.018;6.994;2024-01-16T08:33:18;15.93;;;4.60;;
4323;SDS011;2175;51.018;6.994;2024-01-16T08:35:44;13.98;;;4.18;;
4323;SDS011;2175;51.018;6.994;2024-01-16T08:38:10;14.18;;;4.70;;
4323;SDS011;2175;51.018;6.994;2024-01-16T08:40:36;13.23;;;4.53;;
4323;SDS011;2175;51.018;6.994;2024-01-16T08:43:02;14.37;;;4.90;;
4323;SDS011;2175;51.018;6.994;2024-01-16T08:45:28;18.25;;;4.85;;
4323;SDS011;2175;51.018;6.994;2024-01-16T08:47:54;19.33;;;4.32;;
4323;SDS011;2175;51.018;6.994;2024-01-16T08:50:20;11.82;;;4.35;;
4323;SDS011;2175;51.018;6.994;2024-01-16T08:52:47;15.10;;;4.35;;
4323;SDS011;2175;51.018;6.994;2024-01-16T08:55:13;13.50;;;3.97;;
4323;SDS011;2175;51.018;6.994;2024-01-16T08:57:39;10.35;;;4.28;;
4323;SDS011;2175;51.018;6.994;2024-01-16T09:00:06;13.63;;;4.50;;
4323;SDS011;2175;51.018;6.994;2024-01-16T09:02:33;9.88;;;4.07;;
4323;SDS011;2175;51.018;6.994;2024-01-16T09:04:59;9.60;;;3.95;;
4323;SDS011;2175;51.018;6.994;2024-01-16T09:07:26;10.40;;;3.80;;
4323;SDS011;2175;51.018;6.994;2024-01-16T09:09:52;13.75;;;4.20;;
4323;SDS011;2175;51.018;6.994;2024-01-16T09:12:18;12.50;;;3.75;;
4323;SDS011;2175;51.018;6.994;2024-01-16T09:14:44;13.30;;;4.28;;
4323;SDS011;2175;51.018;6.994;2024-01-16T09:17:10;13.43;;;3.63;;
4323;SDS011;2175;51.018;6.994;2024-01-16T09:19:36;12.38;;;3.88;;
4323;SDS011;2175;51.018;6.994;2024-01-16T09:22:02;8.30;;;3.00;;
4323;SDS011;2175;51.018;6.994;2024-01-16T09:24:29;12.02;;;4.07;;
4323;SDS011;2175;51.018;6.994;2024-01-16T09:26:55;13.73;;;4.03;;
4323;SDS011;2175;51.018;6.994;2024-01-16T09:29:21;18.15;;;4.63;;
4323;SDS011;2175;51.018;6.994;2024-01-16T09:31:47;15.57;;;4.15;;
4323;SDS011;2175;51.018;6.994;2024-01-16T09:34:14;15.60;;;4.50;;
4323;SDS011;2175;51.018;6.994;2024-01-16T09:36:40;12.18;;;3.97;;
4323;SDS011;2175;51.018;6.994;2024-01-16T09:39:07;10.77;;;4.10;;
4323;SDS011;2175;51.018;6.994;2024-01-16T09:41:34;8.93;;;3.70;;
4323;SDS011;2175;51.018;6.994;2024-01-16T09:44:00;14.73;;;3.92;;
4323;SDS011;2175;51.018;6.994;2024-01-16T09:46:26;8.80;;;3.40;;
4323;SDS011;2175;51.018;6.994;2024-01-16T09:48:56;11.03;;;4.30;;
4323;SDS011;2175;51.018;6.994;2024-01-16T09:51:25;12.75;;;4.40;;
4323;SDS011;2175;51.018;6.994;2024-01-16T09:53:51;9.57;;;3.63;;
4323;SDS011;2175;51.018;6.994;2024-01-16T09:56:20;14.43;;;4.55;;
4323;SDS011;2175;51.018;6.994;2024-01-16T09:58:48;16.70;;;4.40;;
4323;SDS011;2175;51.018;6.994;2024-01-16T10:01:14;12.02;;;4.30;;
4323;SDS011;2175;51.018;6.994;2024-01-16T10:03:43;15.07;;;4.80;;
4323;SDS011;2175;51.018;6.994;2024-01-16T10:06:10;12.57;;;4.15;;
4323;SDS011;2175;51.018;6.994;2024-01-16T10:08:36;16.00;;;4.43;;
4323;SDS011;2175;51.018;6.994;2024-01-16T10:11:03;12.70;;;4.07;;
4323;SDS011;2175;51.018;6.994;2024-01-16T10:13:29;10.43;;;4.57;;
4323;SDS011;2175;51.018;6.994;2024-01-16T10:15:55;14.20;;;4.63;;
4323;SDS011;2175;51.018;6.994;2024-01-16T10:18:23;14.38;;;4.20;;
4323;SDS011;2175;51.018;6.994;2024-01-16T10:20:49;17.33;;;4.85;;
4323;SDS011;2175;51.018;6.994;2024-01-16T10:23:36;12.40;;;4.50;;
4323;SDS011;2175;51.018;6.994;2024-01-16T10:28:36;15.57;;;4.70;;
4323;SDS011;2175;51.018;6.994;2024-01-16T10:31:03;13.38;;;4.72;;
4323;SDS011;2175;51.018;6.994;2024-01-16T10:33:29;18.75;;;4.65;;
4323;SDS011;2175;51.018;6.994;2024-01-16T10:36:13;15.75;;;4.72;;
4323;SDS011;2175;51.018;6.994;2024-01-16T10:38:40;9.80;;;4.35;;
4323;SDS011;2175;51.018;6.994;2024-01-16T10:41:08;9.02;;;4.25;;
4323;SDS011;2175;51.018;6.994;2024-01-16T10:43:35;11.85;;;4.22;;
4323;SDS011;2175;51.018;6.994;2024-01-16T10:48:35;15.55;;;4.55;;
4323;SDS011;2175;51.018;6.994;2024-01-16T10:51:01;16.88;;;4.55;;
4323;SDS011;2175;51.018;6.994;2024-01-16T10:53:29;11.45;;;3.90;;
4323;SDS011;2175;51.018;6.994;2024-01-16T10:55:58;17.10;;;4.80;;
4323;SDS011;2175;51.018;6.994;2024-01-16T10:58:25;6.68;;;3.70;;
4323;SDS011;2175;51.018;6.994;2024-01-16T11:00:54;12.45;;;3.60;;
4323;SDS011;2175;51.018;6.994;2024-01-16T11:03:46;13.30;;;4.15;;
4323;SDS011;2175;51.018;6.994;2024-01-16T11:06:08;12.30;;;4.30;;
4323;SDS011;2175;51.018;6.994;2024-01-16T11:08:36;9.57;;;3.75;;
4323;SDS011;2175;51.018;6.994;2024-01-16T11:11:02;18.52;;;4.18;;
4323;SDS011;2175;51.018;6.994;2024-01-16T11:13:29;15.85;;;4.13;;
4323;SDS011;2175;51.018;6.994;2024-01-16T11:15:56;13.68;;;3.60;;
4323;SDS011;2175;51.018;6.994;2024-01-16T11:18:23;11.80;;;3.60;;
4323;SDS011;2175;51.018;6.994;2024-01-16T11:20:50;13.82;;;3.95;;
4323;SDS011;2175;51.018;6.994;2024-01-16T11:23:16;9.63;;;3.42;;
4323;SDS011;2175;51.018;6.994;2024-01-16T11:25:43;13.50;;;4.47;;
4323;SDS011;2175;51.018;6.994;2024-01-16T11:28:09;11.30;;;4.22;;
4323;SDS011;2175;51.018;6.994;2024-01-16T11:30:36;10.32;;;3.88;;
4323;SDS011;2175;51.018;6.994;2024-01-16T11:33:02;14.37;;;3.67;;
4323;SDS011;2175;51.018;6.994;2024-01-16T11:35:35;15.68;;;4.20;;
4323;SDS011;2175;51.018;6.994;2024-01-16T11:38:18;13.27;;;3.55;;
4323;SDS011;2175;51.018;6.994;2024-01-16T11:40:46;12.50;;;3.83;;
4323;SDS011;2175;51.018;6.994;2024-01-16T11:46:06;14.35;;;4.57;;
4323;SDS011;2175;51.018;6.994;2024-01-16T11:48:32;13.20;;;3.95;;
4323;SDS011;2175;51.018;6.994;2024-01-16T11:50:58;12.95;;;4.20;;
4323;SDS011;2175;51.018;6.994;2024-01-16T11:53:35;11.15;;;3.55;;
4323;SDS011;2175;51.018;6.994;2024-01-16T11:56:10;10.45;;;3.92;;
4323;SDS011;2175;51.018;6.994;2024-01-16T11:58:45;14.02;;;4.65;;
4323;SDS011;2175;51.018;6.994;2024-01-16T12:01:15;7.60;;;3.63;;
4323;SDS011;2175;51.018;6.994;2024-01-16T12:03:43;12.60;;;4.20;;
4323;SDS011;2175;51.018;6.994;2024-01-16T12:06:08;12.00;;;3.90;;
4323;SDS011;2175;51.018;6.994;2024-01-16T12:08:35;11.95;;;3.65;;
4323;SDS011;2175;51.018;6.994;2024-01-16T12:11:02;12.30;;;4.68;;
4323;SDS011;2175;51.018;6.994;2024-01-16T12:13:29;11.32;;;3.83;;
4323;SDS011;2175;51.018;6.994;2024-01-16T12:15:59;17.50;;;4.38;;
4323;SDS011;2175;51.018;6.994;2024-01-16T12:18:25;12.38;;;4.15;;
4323;SDS011;2175;51.018;6.994;2024-01-16T12:20:51;15.48;;;4.00;;
4323;SDS011;2175;51.018;6.994;2024-01-16T12:23:17;11.73;;;4.20;;
4323;SDS011;2175;51.018;6.994;2024-01-16T12:25:45;15.63;;;4.72;;
4323;SDS011;2175;51.018;6.994;2024-01-16T12:28:11;10.82;;;3.97;;
4323;SDS011;2175;51.018;6.994;2024-01-16T12:30:46;10.75;;;4.10;;
4323;SDS011;2175;51.018;6.994;2024-01-16T12:33:14;13.55;;;4.00;;
4323;SDS011;2175;51.018;6.994;2024-01-16T12:35:42;14.32;;;5.00;;
4323;SDS011;2175;51.018;6.994;2024-01-16T12:38:10;11.20;;;4.70;;
4323;SDS011;2175;51.018;6.994;2024-01-16T12:40:36;13.27;;;4.47;;
4323;SDS011;2175;51.018;6.994;2024-01-16T12:43:03;17.30;;;4.90;;
4323;SDS011;2175;51.018;6.994;2024-01-16T12:45:30;19.48;;;4.63;;
4323;SDS011;2175;51.018;6.994;2024-01-16T12:47:56;14.60;;;4.45;;
4323;SDS011;2175;51.018;6.994;2024-01-16T12:50:26;15.07;;;4.55;;
4323;SDS011;2175;51.018;6.994;2024-01-16T12:53:02;16.55;;;4.90;;
4323;SDS011;2175;51.018;6.994;2024-01-16T12:55:29;12.70;;;5.07;;
4323;SDS011;2175;51.018;6.994;2024-01-16T13:00:41;11.63;;;5.00;;
4323;SDS011;2175;51.018;6.994;2024-01-16T13:03:07;18.60;;;5.40;;
4323;SDS011;2175;51.018;6.994;2024-01-16T13:05:34;10.52;;;4.10;;
4323;SDS011;2175;51.018;6.994;2024-01-16T13:08:00;8.75;;;4.55;;
4323;SDS011;2175;51.018;6.994;2024-01-16T13:10:29;13.50;;;4.72;;
4323;SDS011;2175;51.018;6.994;2024-01-16T13:13:15;10.98;;;4.40;;
4323;SDS011;2175;51.018;6.994;2024-01-16T13:15:43;12.07;;;3.97;;
4323;SDS011;2175;51.018;6.994;2024-01-16T13:18:19;15.15;;;4.85;;
4323;SDS011;2175;51.018;6.994;2024-01-16T13:20:46;14.95;;;3.70;;
4323;SDS011;2175;51.018;6.994;2024-01-16T13:23:13;12.40;;;4.75;;
4323;SDS011;2175;51.018;6.994;2024-01-16T13:25:39;14.88;;;4.60;;
4323;SDS011;2175;51.018;6.994;2024-01-16T13:28:05;12.65;;;4.50;;
4323;SDS011;2175;51.018;6.994;2024-01-16T13:30:32;10.48;;;4.80;;
4323;SDS011;2175;51.018;6.994;2024-01-16T13:32:58;13.32;;;5.22;;
4323;SDS011;2175;51.018;6.994;2024-01-16T13:35:25;14.98;;;5.28;;
4323;SDS011;2175;51.018;6.994;2024-01-16T13:37:51;17.35;;;5.10;;
4323;SDS011;2175;51.018;6.994;2024-01-16T13:40:17;9.85;;;4.85;;
4323;SDS011;2175;51.018;6.994;2024-01-16T13:42:44;12.02;;;5.13;;
4323;SDS011;2175;51.018;6.994;2024-01-16T13:45:10;13.25;;;4.70;;
4323;SDS011;2175;51.018;6.994;2024-01-16T13:47:40;11.30;;;5.45;;
4323;SDS011;2175;51.018;6.994;2024-01-16T13:50:07;16.13;;;4.90;;
4323;SDS011;2175;51.018;6.994;2024-01-16T13:52:34;12.05;;;4.75;;
4323;SDS011;2175;51.018;6.994;2024-01-16T13:55:00;16.33;;;5.63;;
4323;SDS011;2175;51.018;6.994;2024-01-16T13:57:30;10.65;;;5.40;;
4323;SDS011;2175;51.018;6.994;2024-01-16T13:59:56;18.07;;;5.00;;
4323;SDS011;2175;51.018;6.994;2024-01-16T14:02:22;13.70;;;5.00;;
4323;SDS011;2175;51.018;6.994;2024-01-16T14:04:48;19.43;;;5.37;;
4323;SDS011;2175;51.018;6.994;2024-01-16T14:07:13;12.97;;;5.33;;
4323;SDS011;2175;51.018;6.994;2024-01-16T14:09:40;17.58;;;5.25;;
4323;SDS011;2175;51.018;6.994;2024-01-16T14:12:07;12.13;;;5.00;;
4323;SDS011;2175;51.018;6.994;2024-01-16T14:14:33;15.90;;;5.18;;
4323;SDS011;2175;51.018;6.994;2024-01-16T14:16:59;14.95;;;6.05;;
4323;SDS011;2175;51.018;6.994;2024-01-16T14:19:25;12.60;;;5.20;;
4323;SDS011;2175;51.018;6.994;2024-01-16T14:21:53;11.05;;;5.10;;
4323;SDS011;2175;51.018;6.994;2024-01-16T14:24:19;18.50;;;5.88;;
4323;SDS011;2175;51.018;6.994;2024-01-16T14:26:45;15.43;;;5.40;;
4323;SDS011;2175;51.018;6.994;2024-01-16T14:29:11;14.00;;;5.00;;
4323;SDS011;2175;51.018;6.994;2024-01-16T14:31:38;24.13;;;5.93;;
4323;SDS011;2175;51.018;6.994;2024-01-16T14:34:09;11.18;;;5.10;;
4323;SDS011;2175;51.018;6.994;2024-01-16T14:36:35;12.77;;;5.28;;
4323;SDS011;2175;51.018;6.994;2024-01-16T14:39:01;13.40;;;5.23;;
4323;SDS011;2175;51.018;6.994;2024-01-16T14:41:27;10.65;;;4.80;;
4323;SDS011;2175;51.018;6.994;2024-01-16T14:43:53;10.93;;;5.10;;
4323;SDS011;2175;51.018;6.994;2024-01-16T14:46:19;18.77;;;5.55;;
4323;SDS011;2175;51.018;6.994;2024-01-16T14:48:45;10.47;;;5.03;;
4323;SDS011;2175;51.018;6.994;2024-01-16T14:51:11;15.32;;;5.50;;
4323;SDS011;2175;51.018;6.994;2024-01-16T14:53:37;11.05;;;4.82;;
4323;SDS011;2175;51.018;6.994;2024-01-16T14:56:03;15.93;;;5.20;;
4323;SDS011;2175;51.018;6.994;2024-01-16T14:58:30;14.02;;;5.65;;
4323;SDS011;2175;51.018;6.994;2024-01-16T15:00:57;16.92;;;5.43;;
4323;SDS011;2175;51.018;6.994;2024-01-16T15:03:23;14.65;;;5.60;;
4323;SDS011;2175;51.018;6.994;2024-01-16T15:05:50;15.52;;;6.07;;
4323;SDS011;2175;51.018;6.994;2024-01-16T15:08:18;17.35;;;5.45;;